sensor_id;sensor_type;location;lat;lon;timestamp;temperature;humidity
7622;DHT22;3852;52.284;8.032;2022-11-25T00:01:05;6.00;99.90
7622;DHT22;3852;52.284;8.032;2022-11-25T00:03:42;5.90;99.90
7622;DHT22;3852;52.284;8.032;2022-11-25T00:06:12;5.90;99.90
7622;DHT22;3852;52.284;8.032;2022-11-25T00:08:46;6.00;99.90
7622;DHT22;3852;52.284;8.032;2022-11-25T00:11:14;5.90;99.90
7622;DHT22;3852;52.284;8.032;2022-11-25T00:13:43;5.90;99.90
7622;DHT22;3852;52.284;8.032;2022-11-25T00:16:11;5.80;99.90
7622;DHT22;3852;52.284;8.032;2022-11-25T00:18:39;5.80;99.90
7622;DHT22;3852;52.284;8.032;2022-11-25T00:23:33;5.80;99.90
7622;DHT22;3852;52.284;8.032;2022-11-25T00:26:13;5.70;99.90
7622;DHT22;3852;52.284;8.032;2022-11-25T00:28:43;5.80;99.90
7622;DHT22;3852;52.284;8.032;2022-11-25T00:31:21;5.70;99.90
7622;DHT22;3852;52.284;8.032;2022-11-25T00:33:48;5.70;99.90
7622;DHT22;3852;52.284;8.032;2022-11-25T00:36:16;5.60;99.90
7622;DHT22;3852;52.284;8.032;2022-11-25T00:38:53;5.70;99.90
7622;DHT22;3852;52.284;8.032;2022-11-25T00:41:21;5.70;99.90
7622;DHT22;3852;52.284;8.032;2022-11-25T00:44:11;5.80;99.90
7622;DHT22;3852;52.284;8.032;2022-11-25T00:46:57;5.90;99.90
7622;DHT22;3852;52.284;8.032;2022-11-25T00:49:23;5.90;99.90
7622;DHT22;3852;52.284;8.032;2022-11-25T00:51:49;6.10;99.90
7622;DHT22;3852;52.284;8.032;2022-11-25T00:54:15;6.10;99.90
7622;DHT22;3852;52.284;8.032;2022-11-25T00:56:41;6.10;99.90
7622;DHT22;3852;52.284;8.032;2022-11-25T00:59:07;6.50;99.90
7622;DHT22;3852;52.284;8.032;2022-11-25T01:01:34;6.70;99.90
7622;DHT22;3852;52.284;8.032;2022-11-25T01:03:59;6.80;99.90
7622;DHT22;3852;52.284;8.032;2022-11-25T01:06:25;6.80;99.90
7622;DHT22;3852;52.284;8.032;2022-11-25T01:08:52;7.10;99.90
7622;DHT22;3852;52.284;8.032;2022-11-25T01:11:19;7.10;99.90
7622;DHT22;3852;52.284;8.032;2022-11-25T01:13:46;7.10;99.90
7622;DHT22;3852;52.284;8.032;2022-11-25T01:16:16;7.30;99.90
7622;DHT22;3852;52.284;8.032;2022-11-25T01:18:43;7.40;99.90
7622;DHT22;3852;52.284;8.032;2022-11-25T01:21:14;7.40;99.90
7622;DHT22;3852;52.284;8.032;2022-11-25T01:23:45;7.50;99.90
7622;DHT22;3852;52.284;8.032;2022-11-25T01:26:15;7.40;99.90
7622;DHT22;3852;52.284;8.032;2022-11-25T01:28:45;7.70;99.90
7622;DHT22;3852;52.284;8.032;2022-11-25T01:33:43;7.80;99.90
7622;DHT22;3852;52.284;8.032;2022-11-25T01:36:15;7.90;99.90
7622;DHT22;3852;52.284;8.032;2022-11-25T01:38:42;7.80;99.90
7622;DHT22;3852;52.284;8.032;2022-11-25T01:41:13;7.70;99.90
7622;DHT22;3852;52.284;8.032;2022-11-25T01:43:39;7.70;99.90
7622;DHT22;3852;52.284;8.032;2022-11-25T01:46:29;7.80;99.90
7622;DHT22;3852;52.284;8.032;2022-11-25T01:49:06;7.90;99.90
7622;DHT22;3852;52.284;8.032;2022-11-25T01:51:52;7.80;99.90
7622;DHT22;3852;52.284;8.032;2022-11-25T01:54:51;8.00;99.90
7622;DHT22;3852;52.284;8.032;2022-11-25T02:00:19;7.90;99.90
7622;DHT22;3852;52.284;8.032;2022-11-25T02:02:48;8.00;99.90
7622;DHT22;3852;52.284;8.032;2022-11-25T02:05:20;8.00;99.90
7622;DHT22;3852;52.284;8.032;2022-11-25T02:07:52;8.10;99.90
7622;DHT22;3852;52.284;8.032;2022-11-25T02:10:28;8.10;99.90
7622;DHT22;3852;52.284;8.032;2022-11-25T02:12:56;8.00;99.90
7622;DHT22;3852;52.284;8.032;2022-11-25T02:15:22;8.00;99.90
7622;DHT22;3852;52.284;8.032;2022-11-25T02:17:50;8.00;99.90
7622;DHT22;3852;52.284;8.032;2022-11-25T02:20:20;8.10;99.90
7622;DHT22;3852;52.284;8.032;2022-11-25T02:23:08;8.20;99.90
7622;DHT22;3852;52.284;8.032;2022-11-25T02:25:44;8.10;99.90
7622;DHT22;3852;52.284;8.032;2022-11-25T02:28:18;8.10;99.90
7622;DHT22;3852;52.284;8.032;2022-11-25T02:30:48;8.20;99.90
7622;DHT22;3852;52.284;8.032;2022-11-25T02:33:15;8.20;99.90
7622;DHT22;3852;52.284;8.032;2022-11-25T02:35:51;8.10;99.90
7622;DHT22;3852;52.284;8.032;2022-11-25T02:38:56;8.10;99.90
7622;DHT22;3852;52.284;8.032;2022-11-25T02:41:24;8.20;99.90
7622;DHT22;3852;52.284;8.032;2022-11-25T02:43:59;8.20;99.90
7622;DHT22;3852;52.284;8.032;2022-11-25T02:46:27;8.20;99.90
7622;DHT22;3852;52.284;8.032;2022-11-25T02:48:54;8.30;99.90
7622;DHT22;3852;52.284;8.032;2022-11-25T02:51:23;8.40;99.90
7622;DHT22;3852;52.284;8.032;2022-11-25T02:53:50;8.40;99.90
7622;DHT22;3852;52.284;8.032;2022-11-25T02:56:19;8.50;99.90
7622;DHT22;3852;52.284;8.032;2022-11-25T02:58:46;8.50;99.90
7622;DHT22;3852;52.284;8.032;2022-11-25T03:01:12;8.50;99.90
7622;DHT22;3852;52.284;8.032;2022-11-25T03:03:38;8.50;99.90
7622;DHT22;3852;52.284;8.032;2022-11-25T03:06:04;8.50;99.90
7622;DHT22;3852;52.284;8.032;2022-11-25T03:08:30;8.50;99.90
7622;DHT22;3852;52.284;8.032;2022-11-25T03:10:55;8.60;99.90
7622;DHT22;3852;52.284;8.032;2022-11-25T03:13:21;8.70;99.90
7622;DHT22;3852;52.284;8.032;2022-11-25T03:15:47;8.70;99.90
7622;DHT22;3852;52.284;8.032;2022-11-25T03:18:13;8.70;99.90
7622;DHT22;3852;52.284;8.032;2022-11-25T03:20:39;8.80;99.90
7622;DHT22;3852;52.284;8.032;2022-11-25T03:23:06;8.90;99.90
7622;DHT22;3852;52.284;8.032;2022-11-25T03:25:32;8.80;99.90
7622;DHT22;3852;52.284;8.032;2022-11-25T03:27:59;8.70;99.90
7622;DHT22;3852;52.284;8.032;2022-11-25T03:30:26;8.80;99.90
7622;DHT22;3852;52.284;8.032;2022-11-25T03:32:52;8.80;99.90
7622;DHT22;3852;52.284;8.032;2022-11-25T03:35:19;8.70;99.90
7622;DHT22;3852;52.284;8.032;2022-11-25T03:37:45;8.70;99.90
7622;DHT22;3852;52.284;8.032;2022-11-25T03:40:12;8.70;99.90
7622;DHT22;3852;52.284;8.032;2022-11-25T03:42:40;8.80;99.90
7622;DHT22;3852;52.284;8.032;2022-11-25T03:45:07;8.70;99.90
7622;DHT22;3852;52.284;8.032;2022-11-25T03:47:34;8.70;99.90
7622;DHT22;3852;52.284;8.032;2022-11-25T03:50:01;8.60;99.90
7622;DHT22;3852;52.284;8.032;2022-11-25T03:52:27;8.60;99.90
7622;DHT22;3852;52.284;8.032;2022-11-25T03:54:52;8.60;99.90
7622;DHT22;3852;52.284;8.032;2022-11-25T03:57:18;8.60;99.90
7622;DHT22;3852;52.284;8.032;2022-11-25T03:59:44;8.70;99.90
7622;DHT22;3852;52.284;8.032;2022-11-25T04:02:10;8.80;99.90
7622;DHT22;3852;52.284;8.032;2022-11-25T04:04:36;8.80;99.90
7622;DHT22;3852;52.284;8.032;2022-11-25T04:07:02;8.80;99.90
7622;DHT22;3852;52.284;8.032;2022-11-25T04:09:28;8.90;99.90
7622;DHT22;3852;52.284;8.032;2022-11-25T04:11:54;8.80;99.90
7622;DHT22;3852;52.284;8.032;2022-11-25T04:14:38;8.80;99.90
7622;DHT22;3852;52.284;8.032;2022-11-25T04:17:04;8.80;99.90
7622;DHT22;3852;52.284;8.032;2022-11-25T04:19:30;8.80;99.90
7622;DHT22;3852;52.284;8.032;2022-11-25T04:21:56;8.90;99.90
7622;DHT22;3852;52.284;8.032;2022-11-25T04:24:24;8.90;99.90
7622;DHT22;3852;52.284;8.032;2022-11-25T04:26:50;8.90;99.90
7622;DHT22;3852;52.284;8.032;2022-11-25T04:29:16;8.80;99.90
7622;DHT22;3852;52.284;8.032;2022-11-25T04:31:41;8.80;99.90
7622;DHT22;3852;52.284;8.032;2022-11-25T04:34:07;8.60;99.90
7622;DHT22;3852;52.284;8.032;2022-11-25T04:36:33;8.70;99.90
7622;DHT22;3852;52.284;8.032;2022-11-25T04:38:59;8.90;99.90
7622;DHT22;3852;52.284;8.032;2022-11-25T04:41:25;9.00;99.90
7622;DHT22;3852;52.284;8.032;2022-11-25T04:43:50;8.80;99.90
7622;DHT22;3852;52.284;8.032;2022-11-25T04:46:21;8.80;99.90
7622;DHT22;3852;52.284;8.032;2022-11-25T04:48:49;8.80;99.90
7622;DHT22;3852;52.284;8.032;2022-11-25T04:51:15;8.90;99.90
7622;DHT22;3852;52.284;8.032;2022-11-25T04:53:41;9.00;99.90
7622;DHT22;3852;52.284;8.032;2022-11-25T04:56:10;9.00;99.90
7622;DHT22;3852;52.284;8.032;2022-11-25T04:58:41;8.90;99.90
7622;DHT22;3852;52.284;8.032;2022-11-25T05:01:25;9.00;99.90
7622;DHT22;3852;52.284;8.032;2022-11-25T05:03:50;8.90;99.90
7622;DHT22;3852;52.284;8.032;2022-11-25T05:06:16;8.80;99.90
7622;DHT22;3852;52.284;8.032;2022-11-25T05:08:43;8.90;99.90
7622;DHT22;3852;52.284;8.032;2022-11-25T05:11:08;8.90;99.90
7622;DHT22;3852;52.284;8.032;2022-11-25T05:13:34;8.90;99.90
7622;DHT22;3852;52.284;8.032;2022-11-25T05:16:00;8.80;99.90
7622;DHT22;3852;52.284;8.032;2022-11-25T05:18:26;8.70;99.90
7622;DHT22;3852;52.284;8.032;2022-11-25T05:20:51;8.70;99.90
7622;DHT22;3852;52.284;8.032;2022-11-25T05:23:17;8.60;99.90
7622;DHT22;3852;52.284;8.032;2022-11-25T05:25:43;8.60;99.90
7622;DHT22;3852;52.284;8.032;2022-11-25T05:28:09;8.80;99.90
7622;DHT22;3852;52.284;8.032;2022-11-25T05:30:35;8.70;99.90
7622;DHT22;3852;52.284;8.032;2022-11-25T05:33:00;8.60;99.90
7622;DHT22;3852;52.284;8.032;2022-11-25T05:35:26;8.70;99.90
7622;DHT22;3852;52.284;8.032;2022-11-25T05:37:52;8.70;99.90
7622;DHT22;3852;52.284;8.032;2022-11-25T05:40:18;8.70;99.90
7622;DHT22;3852;52.284;8.032;2022-11-25T05:42:44;8.70;99.90
7622;DHT22;3852;52.284;8.032;2022-11-25T05:45:09;8.70;99.90
7622;DHT22;3852;52.284;8.032;2022-11-25T05:47:35;8.60;99.90
7622;DHT22;3852;52.284;8.032;2022-11-25T05:50:01;8.60;99.90
7622;DHT22;3852;52.284;8.032;2022-11-25T05:52:27;8.70;99.90
7622;DHT22;3852;52.284;8.032;2022-11-25T05:54:53;8.60;99.90
7622;DHT22;3852;52.284;8.032;2022-11-25T05:57:19;8.70;99.90
7622;DHT22;3852;52.284;8.032;2022-11-25T05:59:45;8.60;99.90
7622;DHT22;3852;52.284;8.032;2022-11-25T06:02:10;8.60;99.90
7622;DHT22;3852;52.284;8.032;2022-11-25T06:04:36;8.50;99.90
7622;DHT22;3852;52.284;8.032;2022-11-25T06:07:02;8.50;99.90
7622;DHT22;3852;52.284;8.032;2022-11-25T06:09:28;8.50;99.90
7622;DHT22;3852;52.284;8.032;2022-11-25T06:11:54;8.50;99.90
7622;DHT22;3852;52.284;8.032;2022-11-25T06:14:19;8.40;99.90
7622;DHT22;3852;52.284;8.032;2022-11-25T06:16:47;8.60;99.90
7622;DHT22;3852;52.284;8.032;2022-11-25T06:19:13;8.50;99.90
7622;DHT22;3852;52.284;8.032;2022-11-25T06:21:39;8.50;99.90
7622;DHT22;3852;52.284;8.032;2022-11-25T06:24:05;8.50;99.90
7622;DHT22;3852;52.284;8.032;2022-11-25T06:26:31;8.70;99.90
7622;DHT22;3852;52.284;8.032;2022-11-25T06:28:57;8.60;99.90
7622;DHT22;3852;52.284;8.032;2022-11-25T06:31:24;8.80;99.90
7622;DHT22;3852;52.284;8.032;2022-11-25T06:33:51;8.80;99.90
7622;DHT22;3852;52.284;8.032;2022-11-25T06:36:18;8.80;99.90
7622;DHT22;3852;52.284;8.032;2022-11-25T06:38:47;8.70;99.90
7622;DHT22;3852;52.284;8.032;2022-11-25T06:41:14;8.70;99.90
7622;DHT22;3852;52.284;8.032;2022-11-25T06:43:40;8.60;99.90
7622;DHT22;3852;52.284;8.032;2022-11-25T06:46:08;8.50;99.90
7622;DHT22;3852;52.284;8.032;2022-11-25T06:48:38;8.60;99.90
7622;DHT22;3852;52.284;8.032;2022-11-25T06:51:07;8.50;99.90
7622;DHT22;3852;52.284;8.032;2022-11-25T06:53:36;8.50;99.90
7622;DHT22;3852;52.284;8.032;2022-11-25T06:58:32;8.50;99.90
7622;DHT22;3852;52.284;8.032;2022-11-25T07:01:02;8.40;99.90
7622;DHT22;3852;52.284;8.032;2022-11-25T07:03:30;8.50;99.90
7622;DHT22;3852;52.284;8.032;2022-11-25T07:05:57;8.40;99.90
7622;DHT22;3852;52.284;8.032;2022-11-25T07:08:24;8.50;99.90
7622;DHT22;3852;52.284;8.032;2022-11-25T07:10:51;8.50;99.90
7622;DHT22;3852;52.284;8.032;2022-11-25T07:13:19;8.40;99.90
7622;DHT22;3852;52.284;8.032;2022-11-25T07:15:45;8.40;99.90
7622;DHT22;3852;52.284;8.032;2022-11-25T07:18:11;8.40;99.90
7622;DHT22;3852;52.284;8.032;2022-11-25T07:20:37;8.40;99.90
7622;DHT22;3852;52.284;8.032;2022-11-25T07:23:03;8.50;99.90
7622;DHT22;3852;52.284;8.032;2022-11-25T07:25:31;8.50;99.90
7622;DHT22;3852;52.284;8.032;2022-11-25T07:27:57;8.50;99.90
7622;DHT22;3852;52.284;8.032;2022-11-25T07:30:24;8.50;99.90
7622;DHT22;3852;52.284;8.032;2022-11-25T07:32:50;8.50;99.90
7622;DHT22;3852;52.284;8.032;2022-11-25T07:35:17;8.50;99.90
7622;DHT22;3852;52.284;8.032;2022-11-25T07:37:42;8.50;99.90
7622;DHT22;3852;52.284;8.032;2022-11-25T07:40:09;8.40;99.90
7622;DHT22;3852;52.284;8.032;2022-11-25T07:42:35;8.50;99.90
7622;DHT22;3852;52.284;8.032;2022-11-25T07:45:01;8.50;99.90
7622;DHT22;3852;52.284;8.032;2022-11-25T07:47:26;8.50;99.90
7622;DHT22;3852;52.284;8.032;2022-11-25T07:49:52;8.60;99.90
7622;DHT22;3852;52.284;8.032;2022-11-25T07:52:18;8.60;99.90
7622;DHT22;3852;52.284;8.032;2022-11-25T07:54:44;8.60;99.90
7622;DHT22;3852;52.284;8.032;2022-11-25T07:57:10;8.60;99.90
7622;DHT22;3852;52.284;8.032;2022-11-25T07:59:36;8.70;99.90
7622;DHT22;3852;52.284;8.032;2022-11-25T08:02:07;8.70;99.90
7622;DHT22;3852;52.284;8.032;2022-11-25T08:04:34;8.70;99.90
7622;DHT22;3852;52.284;8.032;2022-11-25T08:07:01;8.70;99.90
7622;DHT22;3852;52.284;8.032;2022-11-25T08:09:27;8.70;99.90
7622;DHT22;3852;52.284;8.032;2022-11-25T08:11:53;8.70;99.90
7622;DHT22;3852;52.284;8.032;2022-11-25T08:14:19;8.70;99.90
7622;DHT22;3852;52.284;8.032;2022-11-25T08:16:45;8.70;99.90
7622;DHT22;3852;52.284;8.032;2022-11-25T08:19:14;8.70;99.90
7622;DHT22;3852;52.284;8.032;2022-11-25T08:21:41;8.70;99.90
7622;DHT22;3852;52.284;8.032;2022-11-25T08:24:07;8.60;99.90
7622;DHT22;3852;52.284;8.032;2022-11-25T08:26:38;8.70;99.90
7622;DHT22;3852;52.284;8.032;2022-11-25T08:29:05;8.70;99.90
7622;DHT22;3852;52.284;8.032;2022-11-25T08:31:34;8.80;99.90
7622;DHT22;3852;52.284;8.032;2022-11-25T08:34:05;8.70;99.90
7622;DHT22;3852;52.284;8.032;2022-11-25T08:36:32;8.70;99.90
7622;DHT22;3852;52.284;8.032;2022-11-25T08:39:02;8.70;99.90
7622;DHT22;3852;52.284;8.032;2022-11-25T08:41:32;8.70;99.90
7622;DHT22;3852;52.284;8.032;2022-11-25T08:44:01;8.70;99.90
7622;DHT22;3852;52.284;8.032;2022-11-25T08:46:31;8.80;99.90
7622;DHT22;3852;52.284;8.032;2022-11-25T08:49:01;8.80;99.90
7622;DHT22;3852;52.284;8.032;2022-11-25T08:51:31;8.80;99.90
7622;DHT22;3852;52.284;8.032;2022-11-25T08:53:58;8.80;99.90
7622;DHT22;3852;52.284;8.032;2022-11-25T08:56:25;8.80;99.90
7622;DHT22;3852;52.284;8.032;2022-11-25T08:58:51;8.90;99.90
7622;DHT22;3852;52.284;8.032;2022-11-25T09:01:19;8.80;99.90
7622;DHT22;3852;52.284;8.032;2022-11-25T09:03:48;8.80;99.90
7622;DHT22;3852;52.284;8.032;2022-11-25T09:06:16;8.80;99.90
7622;DHT22;3852;52.284;8.032;2022-11-25T09:08:43;8.80;99.90
7622;DHT22;3852;52.284;8.032;2022-11-25T09:11:09;8.80;99.90
7622;DHT22;3852;52.284;8.032;2022-11-25T09:13:36;8.80;99.90
7622;DHT22;3852;52.284;8.032;2022-11-25T09:16:02;8.90;99.90
7622;DHT22;3852;52.284;8.032;2022-11-25T09:18:29;8.90;99.90
7622;DHT22;3852;52.284;8.032;2022-11-25T09:20:57;9.00;99.90
7622;DHT22;3852;52.284;8.032;2022-11-25T09:23:23;9.00;99.90
7622;DHT22;3852;52.284;8.032;2022-11-25T09:25:55;9.00;99.90
7622;DHT22;3852;52.284;8.032;2022-11-25T09:28:22;8.90;99.90
7622;DHT22;3852;52.284;8.032;2022-11-25T09:30:49;8.90;99.90
7622;DHT22;3852;52.284;8.032;2022-11-25T09:33:16;8.90;99.90
7622;DHT22;3852;52.284;8.032;2022-11-25T09:35:41;9.00;99.90
7622;DHT22;3852;52.284;8.032;2022-11-25T09:38:08;8.90;99.90
7622;DHT22;3852;52.284;8.032;2022-11-25T09:46:47;9.10;99.90
7622;DHT22;3852;52.284;8.032;2022-11-25T09:49:49;9.20;99.90
7622;DHT22;3852;52.284;8.032;2022-11-25T09:55:10;9.20;99.90
7622;DHT22;3852;52.284;8.032;2022-11-25T10:00:46;9.30;99.90
7622;DHT22;3852;52.284;8.032;2022-11-25T10:03:29;9.30;99.90
7622;DHT22;3852;52.284;8.032;2022-11-25T10:08:37;9.40;99.90
7622;DHT22;3852;52.284;8.032;2022-11-25T10:11:24;9.40;99.90
7622;DHT22;3852;52.284;8.032;2022-11-25T10:14:41;9.40;99.90
7622;DHT22;3852;52.284;8.032;2022-11-25T10:18:04;9.50;99.90
7622;DHT22;3852;52.284;8.032;2022-11-25T10:23:10;9.50;99.90
7622;DHT22;3852;52.284;8.032;2022-11-25T10:25:57;9.60;99.90
7622;DHT22;3852;52.284;8.032;2022-11-25T10:28:31;9.60;99.90
7622;DHT22;3852;52.284;8.032;2022-11-25T10:31:19;9.60;99.90
7622;DHT22;3852;52.284;8.032;2022-11-25T10:33:55;9.70;99.90
7622;DHT22;3852;52.284;8.032;2022-11-25T10:36:32;9.70;99.90
7622;DHT22;3852;52.284;8.032;2022-11-25T10:39:32;9.70;99.90
7622;DHT22;3852;52.284;8.032;2022-11-25T10:42:16;9.80;99.90
7622;DHT22;3852;52.284;8.032;2022-11-25T10:44:44;9.80;99.90
7622;DHT22;3852;52.284;8.032;2022-11-25T10:53:27;9.90;99.90
7622;DHT22;3852;52.284;8.032;2022-11-25T10:56:03;9.90;99.90
7622;DHT22;3852;52.284;8.032;2022-11-25T10:58:39;10.00;99.90
7622;DHT22;3852;52.284;8.032;2022-11-25T11:01:23;10.00;99.90
7622;DHT22;3852;52.284;8.032;2022-11-25T11:04:03;10.00;99.90
7622;DHT22;3852;52.284;8.032;2022-11-25T11:06:45;10.00;99.90
7622;DHT22;3852;52.284;8.032;2022-11-25T11:09:36;10.00;99.90
7622;DHT22;3852;52.284;8.032;2022-11-25T11:12:14;10.00;99.90
7622;DHT22;3852;52.284;8.032;2022-11-25T11:14:45;10.10;99.90
7622;DHT22;3852;52.284;8.032;2022-11-25T11:17:30;10.10;99.90
7622;DHT22;3852;52.284;8.032;2022-11-25T11:22:34;10.20;99.90
7622;DHT22;3852;52.284;8.032;2022-11-25T11:27:36;10.20;99.90
7622;DHT22;3852;52.284;8.032;2022-11-25T11:30:24;10.20;99.90
7622;DHT22;3852;52.284;8.032;2022-11-25T11:39:23;10.30;99.90
7622;DHT22;3852;52.284;8.032;2022-11-25T11:42:13;10.40;99.90
7622;DHT22;3852;52.284;8.032;2022-11-25T11:55:50;10.70;99.90
7622;DHT22;3852;52.284;8.032;2022-11-25T12:01:13;10.90;99.90
7622;DHT22;3852;52.284;8.032;2022-11-25T12:09:41;11.00;99.90
7622;DHT22;3852;52.284;8.032;2022-11-25T12:12:15;11.00;99.90
7622;DHT22;3852;52.284;8.032;2022-11-25T12:14:54;11.00;99.90
7622;DHT22;3852;52.284;8.032;2022-11-25T12:17:45;11.00;99.90
7622;DHT22;3852;52.284;8.032;2022-11-25T12:20:40;11.00;99.90
7622;DHT22;3852;52.284;8.032;2022-11-25T12:29:15;11.00;99.90
7622;DHT22;3852;52.284;8.032;2022-11-25T12:48:41;11.20;99.90
7622;DHT22;3852;52.284;8.032;2022-11-25T13:09:04;11.30;99.90
7622;DHT22;3852;52.284;8.032;2022-11-25T13:17:50;11.40;99.90
7622;DHT22;3852;52.284;8.032;2022-11-25T13:25:44;11.40;99.90
7622;DHT22;3852;52.284;8.032;2022-11-25T13:28:33;11.40;99.90
7622;DHT22;3852;52.284;8.032;2022-11-25T13:31:31;11.40;99.90
7622;DHT22;3852;52.284;8.032;2022-11-25T13:39:30;11.40;99.90
7622;DHT22;3852;52.284;8.032;2022-11-25T13:44:52;11.30;99.90
7622;DHT22;3852;52.284;8.032;2022-11-25T13:47:39;11.30;99.90
7622;DHT22;3852;52.284;8.032;2022-11-25T13:52:57;11.40;99.90
7622;DHT22;3852;52.284;8.032;2022-11-25T13:55:35;11.30;99.90
7622;DHT22;3852;52.284;8.032;2022-11-25T13:58:16;11.30;99.90
7622;DHT22;3852;52.284;8.032;2022-11-25T14:03:55;11.20;99.90
7622;DHT22;3852;52.284;8.032;2022-11-25T14:06:30;11.20;99.90
7622;DHT22;3852;52.284;8.032;2022-11-25T14:15:00;11.20;99.90
7622;DHT22;3852;52.284;8.032;2022-11-25T14:24:36;11.10;99.90
7622;DHT22;3852;52.284;8.032;2022-11-25T14:27:00;11.10;99.90
7622;DHT22;3852;52.284;8.032;2022-11-25T14:29:50;11.20;99.90
7622;DHT22;3852;52.284;8.032;2022-11-25T14:32:39;11.20;99.90
7622;DHT22;3852;52.284;8.032;2022-11-25T14:40:37;11.10;99.90
7622;DHT22;3852;52.284;8.032;2022-11-25T14:43:12;11.10;99.90
7622;DHT22;3852;52.284;8.032;2022-11-25T14:45:40;11.10;99.90
7622;DHT22;3852;52.284;8.032;2022-11-25T14:48:16;11.10;99.90
7622;DHT22;3852;52.284;8.032;2022-11-25T14:51:00;11.00;99.90
7622;DHT22;3852;52.284;8.032;2022-11-25T14:53:45;11.00;99.90
7622;DHT22;3852;52.284;8.032;2022-11-25T14:56:13;11.00;99.90
7622;DHT22;3852;52.284;8.032;2022-11-25T14:58:48;11.00;99.90
7622;DHT22;3852;52.284;8.032;2022-11-25T15:01:21;11.00;99.90
7622;DHT22;3852;52.284;8.032;2022-11-25T15:03:49;10.90;99.90
7622;DHT22;3852;52.284;8.032;2022-11-25T15:06:16;10.90;99.90
7622;DHT22;3852;52.284;8.032;2022-11-25T15:08:53;10.90;99.90
7622;DHT22;3852;52.284;8.032;2022-11-25T15:11:26;11.00;99.90
7622;DHT22;3852;52.284;8.032;2022-11-25T15:14:01;11.00;99.90
7622;DHT22;3852;52.284;8.032;2022-11-25T15:16:38;10.90;99.90
7622;DHT22;3852;52.284;8.032;2022-11-25T15:19:11;10.90;99.90
7622;DHT22;3852;52.284;8.032;2022-11-25T15:21:41;10.90;99.90
7622;DHT22;3852;52.284;8.032;2022-11-25T15:24:31;10.90;99.90
7622;DHT22;3852;52.284;8.032;2022-11-25T15:27:00;10.80;99.90
7622;DHT22;3852;52.284;8.032;2022-11-25T15:29:28;10.70;99.90
7622;DHT22;3852;52.284;8.032;2022-11-25T15:31:56;10.80;99.90
7622;DHT22;3852;52.284;8.032;2022-11-25T15:34:23;10.70;99.90
7622;DHT22;3852;52.284;8.032;2022-11-25T15:36:50;10.70;99.90
7622;DHT22;3852;52.284;8.032;2022-11-25T15:44:31;10.50;99.90
7622;DHT22;3852;52.284;8.032;2022-11-25T15:47:06;10.50;99.90
7622;DHT22;3852;52.284;8.032;2022-11-25T15:50:02;10.50;99.90
7622;DHT22;3852;52.284;8.032;2022-11-25T15:52:46;10.40;99.90
7622;DHT22;3852;52.284;8.032;2022-11-25T15:55:30;10.40;99.90
7622;DHT22;3852;52.284;8.032;2022-11-25T15:58:04;10.40;99.90
7622;DHT22;3852;52.284;8.032;2022-11-25T16:00:36;10.40;99.90
7622;DHT22;3852;52.284;8.032;2022-11-25T16:03:02;10.40;99.90
7622;DHT22;3852;52.284;8.032;2022-11-25T16:05:35;10.40;99.90
7622;DHT22;3852;52.284;8.032;2022-11-25T16:08:23;10.40;99.90
7622;DHT22;3852;52.284;8.032;2022-11-25T16:13:48;10.20;99.90
7622;DHT22;3852;52.284;8.032;2022-11-25T16:19:05;10.10;99.90
7622;DHT22;3852;52.284;8.032;2022-11-25T16:21:43;10.20;99.90
7622;DHT22;3852;52.284;8.032;2022-11-25T16:27:03;10.20;99.90
7622;DHT22;3852;52.284;8.032;2022-11-25T16:30:37;10.20;99.90
7622;DHT22;3852;52.284;8.032;2022-11-25T16:32:45;10.20;99.90
7622;DHT22;3852;52.284;8.032;2022-11-25T16:37:37;10.20;99.90
7622;DHT22;3852;52.284;8.032;2022-11-25T16:40:03;10.20;99.90
7622;DHT22;3852;52.284;8.032;2022-11-25T16:42:32;10.30;99.90
7622;DHT22;3852;52.284;8.032;2022-11-25T16:44:59;10.30;99.90
7622;DHT22;3852;52.284;8.032;2022-11-25T16:47:26;10.30;99.90
7622;DHT22;3852;52.284;8.032;2022-11-25T16:49:52;10.30;99.90
7622;DHT22;3852;52.284;8.032;2022-11-25T16:52:18;10.30;99.90
7622;DHT22;3852;52.284;8.032;2022-11-25T16:54:44;10.40;99.90
7622;DHT22;3852;52.284;8.032;2022-11-25T16:57:16;10.40;99.90
7622;DHT22;3852;52.284;8.032;2022-11-25T16:59:45;10.40;99.90
7622;DHT22;3852;52.284;8.032;2022-11-25T17:02:19;10.40;99.90
7622;DHT22;3852;52.284;8.032;2022-11-25T17:04:46;10.30;99.90
7622;DHT22;3852;52.284;8.032;2022-11-25T17:07:14;10.30;99.90
7622;DHT22;3852;52.284;8.032;2022-11-25T17:09:41;10.30;99.90
7622;DHT22;3852;52.284;8.032;2022-11-25T17:12:14;10.30;99.90
7622;DHT22;3852;52.284;8.032;2022-11-25T17:14:43;10.20;99.90
7622;DHT22;3852;52.284;8.032;2022-11-25T17:17:14;10.30;99.90
7622;DHT22;3852;52.284;8.032;2022-11-25T17:19:46;10.20;99.90
7622;DHT22;3852;52.284;8.032;2022-11-25T17:22:20;10.20;99.90
7622;DHT22;3852;52.284;8.032;2022-11-25T17:24:48;10.20;99.90
7622;DHT22;3852;52.284;8.032;2022-11-25T17:27:28;10.20;99.90
7622;DHT22;3852;52.284;8.032;2022-11-25T17:29:59;10.20;99.90
7622;DHT22;3852;52.284;8.032;2022-11-25T17:32:25;10.20;99.90
7622;DHT22;3852;52.284;8.032;2022-11-25T17:34:52;10.20;99.90
7622;DHT22;3852;52.284;8.032;2022-11-25T17:37:20;10.20;99.90
7622;DHT22;3852;52.284;8.032;2022-11-25T17:39:51;10.10;99.90
7622;DHT22;3852;52.284;8.032;2022-11-25T17:42:31;10.10;99.90
7622;DHT22;3852;52.284;8.032;2022-11-25T17:44:57;10.10;99.90
7622;DHT22;3852;52.284;8.032;2022-11-25T17:47:23;10.00;99.90
7622;DHT22;3852;52.284;8.032;2022-11-25T17:49:49;10.00;99.90
7622;DHT22;3852;52.284;8.032;2022-11-25T17:52:16;10.00;99.90
7622;DHT22;3852;52.284;8.032;2022-11-25T17:54:42;10.10;99.90
7622;DHT22;3852;52.284;8.032;2022-11-25T17:57:17;10.00;99.90
7622;DHT22;3852;52.284;8.032;2022-11-25T17:59:44;10.00;99.90
7622;DHT22;3852;52.284;8.032;2022-11-25T18:02:18;10.00;99.90
7622;DHT22;3852;52.284;8.032;2022-11-25T18:04:45;10.00;99.90
7622;DHT22;3852;52.284;8.032;2022-11-25T18:07:11;9.90;99.90
7622;DHT22;3852;52.284;8.032;2022-11-25T18:09:36;9.90;99.90
7622;DHT22;3852;52.284;8.032;2022-11-25T18:12:08;9.90;99.90
7622;DHT22;3852;52.284;8.032;2022-11-25T18:14:37;9.90;99.90
7622;DHT22;3852;52.284;8.032;2022-11-25T18:17:06;9.80;99.90
7622;DHT22;3852;52.284;8.032;2022-11-25T18:19:33;9.80;99.90
7622;DHT22;3852;52.284;8.032;2022-11-25T18:22:07;9.80;99.90
7622;DHT22;3852;52.284;8.032;2022-11-25T18:24:36;9.80;99.90
7622;DHT22;3852;52.284;8.032;2022-11-25T18:27:01;9.80;99.90
7622;DHT22;3852;52.284;8.032;2022-11-25T18:29:28;9.80;99.90
7622;DHT22;3852;52.284;8.032;2022-11-25T18:31:55;9.80;99.90
7622;DHT22;3852;52.284;8.032;2022-11-25T18:34:22;9.80;99.90
7622;DHT22;3852;52.284;8.032;2022-11-25T18:36:49;9.80;99.90
7622;DHT22;3852;52.284;8.032;2022-11-25T18:39:15;9.80;99.90
7622;DHT22;3852;52.284;8.032;2022-11-25T18:41:44;9.90;99.90
7622;DHT22;3852;52.284;8.032;2022-11-25T18:44:39;9.80;99.90
7622;DHT22;3852;52.284;8.032;2022-11-25T18:47:11;9.80;99.90
7622;DHT22;3852;52.284;8.032;2022-11-25T18:49:37;9.70;99.90
7622;DHT22;3852;52.284;8.032;2022-11-25T18:52:03;9.70;99.90
7622;DHT22;3852;52.284;8.032;2022-11-25T18:54:29;9.70;99.90
7622;DHT22;3852;52.284;8.032;2022-11-25T18:56:55;9.60;99.90
7622;DHT22;3852;52.284;8.032;2022-11-25T18:59:32;9.60;99.90
7622;DHT22;3852;52.284;8.032;2022-11-25T19:01:59;9.60;99.90
7622;DHT22;3852;52.284;8.032;2022-11-25T19:04:25;9.60;99.90
7622;DHT22;3852;52.284;8.032;2022-11-25T19:06:51;9.60;99.90
7622;DHT22;3852;52.284;8.032;2022-11-25T19:09:17;9.50;99.90
7622;DHT22;3852;52.284;8.032;2022-11-25T19:11:51;9.50;99.90
7622;DHT22;3852;52.284;8.032;2022-11-25T19:14:29;9.50;99.90
7622;DHT22;3852;52.284;8.032;2022-11-25T19:17:01;9.40;99.90
7622;DHT22;3852;52.284;8.032;2022-11-25T19:19:29;9.40;99.90
7622;DHT22;3852;52.284;8.032;2022-11-25T19:21:55;9.40;99.90